Time;durP1;ratioP1;P1;durP2;ratioP2;P2;SDS_P1;SDS_P2;PMS_P1;PMS_P2;Temp;Humidity;BMP_temperature;BMP_pressure;BME280_temperature;BME280_humidity;BME280_pressure;Samples;Min_cycle;Max_cycle;Signal;HPM_P1;HPM_P2
2022/07/22 00:02:09;;;;;;;;;;;;;;;16.39;100.00;-21242.16;5013298;28;19914;-80
2022/07/22 00:04:34;;;;;;;;;;;;;;;16.42;100.00;-21242.81;5014394;28;19953;-81
2022/07/22 00:06:59;;;;;;;;;;;;;;;16.44;100.00;-21902.75;5013598;28;20364;-82
2022/07/22 00:09:25;;;;;;;;;;;;;;;16.51;100.00;-22234.13;5012149;28;19906;-82
2022/07/22 00:11:50;;;;;;;;;;;;;;;16.47;100.00;-22892.53;5011993;28;20381;-82
2022/07/22 00:14:15;;;;;;;;;;;;;;;16.45;100.00;-22562.38;5011300;28;19913;-82
2022/07/22 00:16:41;;;;;;;;;;;;;;;16.41;100.00;-22890.94;4995248;28;19959;-81
2022/07/22 00:19:06;;;;;;;;;;;;;;;16.42;100.00;-22561.66;4995358;28;19972;-82
2022/07/22 00:21:31;;;;;;;;;;;;;;;16.40;100.00;-23220.28;5013648;28;19917;-82
2022/07/22 00:23:57;;;;;;;;;;;;;;;16.33;100.00;-24866.03;4996777;28;19913;-80
2022/07/22 00:26:22;;;;;;;;;;;;;;;16.40;100.00;-25528.63;4997199;28;19968;-80
2022/07/22 00:28:47;;;;;;;;;;;;;;;16.41;100.00;-25528.91;4996696;28;19909;-82
2022/07/22 00:31:12;;;;;;;;;;;;;;;16.41;100.00;-25528.91;4995692;28;20332;-78
2022/07/22 00:33:51;;;;;;;;;;;;;;;16.37;100.00;-25527.75;4995735;28;19913;-79
2022/07/22 00:36:16;;;;;;;;;;;;;;;16.32;100.00;-25526.44;4995455;28;20370;-79
2022/07/22 00:38:42;;;;;;;;;;;;;;;16.32;100.00;-25526.56;4995145;28;19914;-80
2022/07/22 00:41:07;;;;;;;;;;;;;;;16.31;100.00;-25526.13;4994866;28;19913;-80
2022/07/22 00:43:49;;;;;;;;;;;;;;;16.27;100.00;-25524.97;5012605;28;20258;-81
2022/07/22 00:46:14;;;;;;;;;;;;;;;16.30;100.00;-25525.84;4995144;28;19959;-80
2022/07/22 00:48:39;;;;;;;;;;;;;;;16.28;100.00;-25525.41;4995235;28;19921;-81
2022/07/22 00:51:05;;;;;;;;;;;;;;;16.35;100.00;-25527.31;4993796;28;19916;-81
2022/07/22 00:53:38;;;;;;;;;;;;;;;16.35;100.00;-25527.16;4995991;28;19937;-81
2022/07/22 00:56:04;;;;;;;;;;;;;;;16.26;100.00;-25524.84;4980120;28;20400;-82
2022/07/22 00:58:29;;;;;;;;;;;;;;;16.30;100.00;-25526.00;4996153;28;19913;-82
2022/07/22 01:00:55;;;;;;;;;;;;;;;16.27;100.00;-25524.97;4995956;28;19944;-80
2022/07/22 01:03:24;;;;;;;;;;;;;;;16.27;100.00;-25524.97;4995743;28;20385;-82
2022/07/22 01:05:49;;;;;;;;;;;;;;;16.31;100.00;-25526.28;5012863;28;19913;-80
2022/07/22 01:08:15;;;;;;;;;;;;;;;16.32;100.00;-25526.44;4996681;28;20301;-81
2022/07/22 01:10:40;;;;;;;;;;;;;;;16.22;100.00;-25523.53;4996614;28;19924;-78
2022/07/22 01:13:08;;;;;;;;;;;;;;;16.22;100.00;-25523.53;4996597;28;19913;-80
2022/07/22 01:15:34;;;;;;;;;;;;;;;16.25;100.00;-25524.41;4997311;28;19922;-80
2022/07/22 01:17:59;;;;;;;;;;;;;;;16.27;100.00;-25524.97;4993859;28;19928;-78
2022/07/22 01:20:25;;;;;;;;;;;;;;;16.24;100.00;-25524.25;4994787;28;19914;-77
2022/07/22 01:22:51;;;;;;;;;;;;;;;16.23;100.00;-25523.97;4994548;28;19917;-77
2022/07/22 01:25:16;;;;;;;;;;;;;;;16.20;100.00;-25523.09;4995047;28;20358;-77
2022/07/22 01:27:41;;;;;;;;;;;;;;;16.22;100.00;-25523.69;4994855;28;20334;-75
2022/07/22 01:30:07;;;;;;;;;;;;;;;16.20;100.00;-25523.09;4994715;28;20016;-77
2022/07/22 01:32:35;;;;;;;;;;;;;;;16.21;100.00;-25523.25;4994994;28;19913;-76
2022/07/22 01:35:00;;;;;;;;;;;;;;;16.22;100.00;-25523.53;5012526;28;19917;-76
2022/07/22 01:37:25;;;;;;;;;;;;;;;16.23;100.00;-25523.81;4995226;28;20004;-77
2022/07/22 01:39:51;;;;;;;;;;;;;;;16.14;100.00;-25521.50;4995429;28;19965;-75
2022/07/22 01:42:16;;;;;;;;;;;;;;;16.19;100.00;-25522.81;4994373;28;19914;-77
2022/07/22 01:44:43;;;;;;;;;;;;;;;16.19;100.00;-25522.66;4995828;28;20358;-76
2022/07/22 01:47:09;;;;;;;;;;;;;;;16.17;100.00;-25522.22;5012141;28;19913;-76
2022/07/22 01:49:34;;;;;;;;;;;;;;;16.16;100.00;-25521.94;4995737;28;20389;-77
2022/07/22 01:52:00;;;;;;;;;;;;;;;16.19;100.00;-25522.66;4995096;28;19961;-76
2022/07/22 01:54:29;;;;;;;;;;;;;;;16.13;100.00;-25521.06;4995064;28;19944;-76
2022/07/22 01:56:54;;;;;;;;;;;;;;;16.15;100.00;-25521.78;5011616;28;20004;-75
2022/07/22 01:59:19;;;;;;;;;;;;;;;16.17;100.00;-25522.06;4995307;28;20341;-76
2022/07/22 02:01:45;;;;;;;;;;;;;;;16.18;100.00;-25522.38;4996036;28;19913;-76
2022/07/22 02:04:12;;;;;;;;;;;;;;;16.20;100.00;-25522.94;5016206;28;19918;-77
2022/07/22 02:06:37;;;;;;;;;;;;;;;16.19;100.00;-25522.81;4998816;28;20381;-76
2022/07/22 02:09:03;;;;;;;;;;;;;;;16.25;100.00;-25524.53;4998288;28;19928;-79
2022/07/22 02:11:29;;;;;;;;;;;;;;;16.26;100.00;-25524.69;4997732;28;19921;-79
2022/07/22 02:13:55;;;;;;;;;;;;;;;16.35;100.00;-25527.31;4995517;28;19964;-77
2022/07/22 02:16:20;;;;;;;;;;;;;;;16.33;100.00;-25526.72;4997138;28;20369;-77
2022/07/22 02:18:46;;;;;;;;;;;;;;;16.39;100.00;-25528.47;4998173;28;20016;-75
2022/07/22 02:21:11;;;;;;;;;;;;;;;16.39;100.00;-25528.31;4998323;28;19920;-78
2022/07/22 02:23:38;;;;;;;;;;;;;;;16.40;100.00;-25528.75;4998440;28;19920;-76
2022/07/22 02:26:03;;;;;;;;;;;;;;;16.41;100.00;-25528.91;4998559;28;19917;-78
2022/07/22 02:28:28;;;;;;;;;;;;;;;16.35;100.00;-25527.31;5016238;28;19920;-79
2022/07/22 02:30:53;;;;;;;;;;;;;;;16.29;100.00;-25525.56;4997124;28;19914;-79
2022/07/22 02:33:19;;;;;;;;;;;;;;;16.32;100.00;-25526.56;4996185;28;19953;-78
2022/07/22 02:35:45;;;;;;;;;;;;;;;16.28;100.00;-25525.28;4997886;28;19960;-79
2022/07/22 02:38:10;;;;;;;;;;;;;;;16.30;100.00;-25525.84;4998197;28;19918;-78
2022/07/22 02:40:35;;;;;;;;;;;;;;;16.28;100.00;-25525.28;4998214;28;19913;-78
2022/07/22 02:43:02;;;;;;;;;;;;;;;16.30;100.00;-25525.84;4999016;28;19923;-78
2022/07/22 02:45:27;;;;;;;;;;;;;;;16.25;100.00;-25524.53;4998069;28;19960;-78
2022/07/22 02:47:54;;;;;;;;;;;;;;;16.23;100.00;-25523.81;4997378;28;19956;-76
2022/07/22 02:50:20;;;;;;;;;;;;;;;16.24;100.00;-25524.25;4997947;28;19914;-77
2022/07/22 02:52:47;;;;;;;;;;;;;;;16.24;100.00;-25524.25;5000605;28;19913;-76
2022/07/22 02:55:12;;;;;;;;;;;;;;;16.19;100.00;-25522.66;5001629;28;19917;-77
2022/07/22 02:57:38;;;;;;;;;;;;;;;16.17;100.00;-25522.22;4997876;28;19913;-80
2022/07/22 03:00:04;;;;;;;;;;;;;;;16.17;100.00;-25522.06;4997506;28;20263;-77
2022/07/22 03:02:29;;;;;;;;;;;;;;;16.19;100.00;-25522.81;4996803;28;19913;-77
2022/07/22 03:04:55;;;;;;;;;;;;;;;16.19;100.00;-25522.66;4997448;28;19921;-78
2022/07/22 03:07:20;;;;;;;;;;;;;;;16.15;100.00;-25521.78;4998260;28;20450;-77
2022/07/22 03:09:45;;;;;;;;;;;;;;;16.12;100.00;-25520.91;4997870;28;19914;-77
2022/07/22 03:12:11;;;;;;;;;;;;;;;16.04;100.00;-25518.59;4997573;28;20329;-77
2022/07/22 03:14:38;;;;;;;;;;;;;;;16.07;100.00;-25519.31;4996902;28;19913;-76
2022/07/22 03:17:03;;;;;;;;;;;;;;;16.03;100.00;-25518.16;4997301;28;19937;-76
2022/07/22 03:19:28;;;;;;;;;;;;;;;16.00;100.00;-25517.28;5015019;28;19913;-76
2022/07/22 03:21:54;;;;;;;;;;;;;;;15.93;100.00;-25515.53;4997400;28;19919;-77
2022/07/22 03:24:20;;;;;;;;;;;;;;;15.91;100.00;-25514.81;4997134;28;20428;-76
2022/07/22 03:26:45;;;;;;;;;;;;;;;15.83;100.00;-25512.50;4997242;28;19975;-76
2022/07/22 03:29:10;;;;;;;;;;;;;;;15.79;100.00;-25511.63;4996522;28;19917;-76
2022/07/22 03:31:36;;;;;;;;;;;;;;;15.80;100.00;-25511.75;4997335;28;20350;-76
2022/07/22 03:34:01;;;;;;;;;;;;;;;15.80;100.00;-25511.75;4996916;28;19917;-77
2022/07/22 03:36:28;;;;;;;;;;;;;;;15.76;100.00;-25510.72;4997432;28;20482;-76
2022/07/22 03:38:54;;;;;;;;;;;;;;;15.75;100.00;-25510.44;4996962;28;19952;-76
2022/07/22 03:41:19;;;;;;;;;;;;;;;15.73;100.00;-25509.88;4997079;28;19960;-79
2022/07/22 03:43:47;;;;;;;;;;;;;;;15.74;100.00;-25510.00;4997605;28;19914;-80
2022/07/22 03:46:12;;;;;;;;;;;;;;;15.81;100.00;-25512.06;4997483;28;19913;-80
2022/07/22 03:48:38;;;;;;;;;;;;;;;15.83;100.00;-25512.63;4997498;28;20424;-77
2022/07/22 03:51:03;;;;;;;;;;;;;;;15.82;100.00;-25512.19;4995895;28;19913;-77
2022/07/22 03:53:28;;;;;;;;;;;;;;;15.85;100.00;-25513.06;4996116;28;19913;-76
2022/07/22 03:55:53;;;;;;;;;;;;;;;15.95;100.00;-25515.97;4995881;28;19914;-79
2022/07/22 03:58:19;;;;;;;;;;;;;;;16.03;100.00;-25518.28;4997088;28;19913;-78
2022/07/22 04:00:44;;;;;;;;;;;;;;;16.11;100.00;-25520.47;4996507;28;20366;-79
2022/07/22 04:03:10;;;;;;;;;;;;;;;16.08;100.00;-25519.59;4995293;28;19917;-77
2022/07/22 04:05:35;;;;;;;;;;;;;;;16.09;100.00;-25519.91;4995041;28;19960;-76
2022/07/22 04:08:00;;;;;;;;;;;;;;;16.12;100.00;-25520.91;4996445;28;19924;-77
2022/07/22 04:10:25;;;;;;;;;;;;;;;16.14;100.00;-25521.50;4996708;28;19952;-79
2022/07/22 04:12:54;;;;;;;;;;;;;;;16.09;100.00;-25520.03;4996622;28;19917;-76
2022/07/22 04:15:19;;;;;;;;;;;;;;;16.13;100.00;-25521.19;5014268;28;19917;-76
2022/07/22 04:17:44;;;;;;;;;;;;;;;16.20;100.00;-25523.09;5013966;28;19917;-76
2022/07/22 04:20:10;;;;;;;;;;;;;;;16.25;100.00;-25524.53;4996270;28;20353;-76
2022/07/22 04:22:37;;;;;;;;;;;;;;;16.29;100.00;-25525.72;4996323;28;19914;-75
2022/07/22 04:25:02;;;;;;;;;;;;;;;16.19;100.00;-25522.66;4995940;28;20008;-76
2022/07/22 04:27:28;;;;;;;;;;;;;;;16.19;100.00;-25522.66;4995585;28;20015;-77
2022/07/22 04:29:53;;;;;;;;;;;;;;;16.23;100.00;-25523.81;4995847;28;19913;-77
2022/07/22 04:32:18;;;;;;;;;;;;;;;16.22;100.00;-25523.69;5013920;28;19920;-76
2022/07/22 04:34:45;;;;;;;;;;;;;;;16.13;100.00;-25521.19;5013302;28;19913;-76
2022/07/22 04:37:10;;;;;;;;;;;;;;;16.17;100.00;-25522.06;4995937;28;19923;-77
2022/07/22 04:39:35;;;;;;;;;;;;;;;16.20;100.00;-25522.94;4996105;28;19913;-76
2022/07/22 04:42:00;;;;;;;;;;;;;;;16.21;100.00;-25523.38;4995619;28;19913;-77
2022/07/22 04:44:29;;;;;;;;;;;;;;;16.23;100.00;-25523.97;4995367;28;19972;-76
2022/07/22 04:46:54;;;;;;;;;;;;;;;16.29;100.00;-25525.72;5011989;28;20277;-81
2022/07/22 04:49:19;;;;;;;;;;;;;;;16.39;100.00;-25528.47;4995671;28;19913;-77
2022/07/22 04:51:44;;;;;;;;;;;;;;;16.39;100.00;-25528.47;4995811;28;19920;-77
2022/07/22 04:54:12;;;;;;;;;;;;;;;16.39;100.00;-25526.53;4995727;28;19940;-79
2022/07/22 04:56:37;;;;;;;;;;;;;;;16.38;100.00;-25196.84;4996139;28;19913;-79
2022/07/22 04:59:03;;;;;;;;;;;;;;;16.42;100.00;-24209.44;4995399;28;20013;-80
2022/07/22 05:01:28;;;;;;;;;;;;;;;16.54;100.00;-24871.63;4995989;28;20385;-81
2022/07/22 05:04:04;;;;;;;;;;;;;;;16.54;100.00;-24542.09;4995802;28;19921;-78
2022/07/22 05:06:29;;;;;;;;;;;;;;;16.51;100.00;-23223.19;5013392;28;19959;-79
2022/07/22 05:08:55;;;;;;;;;;;;;;;16.63;100.00;-22566.63;4995953;28;19913;-78
2022/07/22 05:11:20;;;;;;;;;;;;;;;16.71;100.00;-21578.91;4995643;28;19918;-80
2022/07/22 05:13:47;;;;;;;;;;;;;;;16.78;100.00;-20260.53;4996158;28;19999;-80
2022/07/22 05:16:12;;;;;;;;;;;;;;;16.75;100.00;-19269.72;4995568;28;19996;-80
2022/07/22 05:18:37;;;;;;;;;;;;;;;16.76;100.00;-18279.34;4995524;28;20314;-80
2022/07/22 05:21:03;;;;;;;;;;;;;;;16.84;100.00;-17289.94;4995544;28;20388;-81
2022/07/22 05:23:30;;;;;;;;;;;;;;;16.96;100.00;-15308.88;5013611;28;20007;-81
2022/07/22 05:25:56;;;;;;;;;;;;;;;17.05;100.00;-13325.75;4996176;28;20034;-80
2022/07/22 05:28:21;;;;;;;;;;;;;;;16.98;100.00;-10678.25;4996084;28;20458;-81
2022/07/22 05:30:46;;;;;;;;;;;;;;;17.11;100.00;-10016.72;4993991;28;19956;-81
2022/07/22 05:33:12;;;;;;;;;;;;;;;17.02;100.00;-8691.97;4993826;28;19913;-79
2022/07/22 05:35:37;;;;;;;;;;;;;;;16.99;100.00;-5378.97;4994187;28;19953;-77
2022/07/22 05:38:05;;;;;;;;;;;;;;;17.08;100.00;-3057.56;4996933;28;19913;-79
2022/07/22 05:40:30;;;;;;;;;;;;;;;17.22;100.00;-1397.38;4996592;28;19917;-80
2022/07/22 05:42:55;;;;;;;;;;;;;;;17.16;100.00;925.84;4997666;28;19928;-78
2022/07/22 05:45:21;;;;;;;;;;;;;;;17.15;100.00;925.69;4998534;28;19917;-79
2022/07/22 05:47:46;;;;;;;;;;;;;;;17.39;100.00;3254.91;4998138;28;20503;-80
2022/07/22 05:50:11;;;;;;;;;;;;;;;17.40;100.00;4584.91;4997541;28;19913;-81
2022/07/22 05:52:38;;;;;;;;;;;;;;;17.51;100.00;4587.09;4998441;28;19913;-80
2022/07/22 05:55:03;;;;;;;;;;;;;;;17.44;100.00;7579.63;4997735;28;19921;-81
2022/07/22 05:57:29;;;;;;;;;;;;;;;17.54;100.00;6916.34;4997922;28;19913;-81
2022/07/22 05:59:54;;;;;;;;;;;;;;;17.54;100.00;6916.47;4998203;28;19956;-79
2022/07/22 06:02:19;;;;;;;;;;;;;;;17.55;100.00;6251.19;4997351;28;20534;-80
2022/07/22 06:04:45;;;;;;;;;;;;;;;17.75;100.00;5922.75;5014746;28;19913;-82
2022/07/22 06:07:10;;;;;;;;;;;;;;;17.69;100.00;6919.78;4997421;28;19914;-78
2022/07/22 06:09:36;;;;;;;;;;;;;;;17.72;100.00;11583.59;4997839;28;19960;-80
2022/07/22 06:12:01;;;;;;;;;;;;;;;17.77;100.00;9918.97;4997138;28;20288;-81
2022/07/22 06:14:26;;;;;;;;;;;;;;;17.81;100.00;11586.41;4998102;28;19910;-81
2022/07/22 06:16:51;;;;;;;;;;;;;;;17.75;100.00;9585.41;4997365;28;19956;-80
2022/07/22 06:19:17;;;;;;;;;;;;;;;17.73;100.00;7919.50;4996862;28;19914;-81
2022/07/22 06:21:42;;;;;;;;;;;;;;;17.84;100.00;7589.28;4996840;28;20385;-79
2022/07/22 06:24:07;;;;;;;;;;;;;;;17.93;100.00;11923.56;4996927;28;19914;-79
2022/07/22 06:26:32;;;;;;;;;;;;;;;17.83;100.00;23940.19;4996997;28;19921;-79
2022/07/22 06:28:58;;;;;;;;;;;;;;;17.71;100.00;32301.31;4997421;28;19919;-78
2022/07/22 06:31:23;;;;;;;;;;;;;;;17.77;100.00;43714.63;4998562;28;20111;-78
2022/07/22 06:33:50;;;;;;;;;;;;;;;17.68;100.00;52116.25;4998658;28;19944;-79
2022/07/22 06:36:17;;;;;;;;;;;;;;;17.61;100.00;57500.06;4998407;28;20366;-80
2022/07/22 06:38:42;;;;;;;;;;;;;;;17.74;100.00;44720.81;4998582;28;19913;-80
2022/07/22 06:41:07;;;;;;;;;;;;;;;17.80;100.00;39350.59;4981757;28;19940;-78
2022/07/22 06:43:33;;;;;;;;;;;;;;;17.62;100.00;46055.03;4998798;28;19921;-79
2022/07/22 06:45:58;;;;;;;;;;;;;;;17.87;100.00;48094.91;4997867;28;19959;-81
2022/07/22 06:48:23;;;;;;;;;;;;;;;18.29;100.00;37035.97;4998378;28;19920;-82
2022/07/22 06:50:49;;;;;;;;;;;;;;;18.38;100.00;38050.09;4998831;28;19948;-82
2022/07/22 06:53:20;;;;;;;;;;;;;;;18.49;100.00;46465.78;4998388;28;19920;-82
2022/07/22 06:55:45;;;;;;;;;;;;;;;18.62;100.00;41765.63;5016008;28;19914;-81
2022/07/22 06:58:11;;;;;;;;;;;;;;;18.72;100.00;59642.63;4998092;28;19931;-81
2022/07/22 07:00:36;;;;;;;;;;;;;;;18.73;100.00;81669.56;4996298;28;19953;-80
2022/07/22 07:03:01;;;;;;;;;;;;;;;18.60;100.00;87089.75;4996451;28;20358;-78
2022/07/22 07:05:28;;;;;;;;;;;;;;;18.94;100.00;91908.94;4996526;28;19913;-80
2022/07/22 07:07:53;;;;;;;;;;;;;;;18.95;100.00;83060.16;4997495;28;19959;-79
2022/07/22 07:10:18;;;;;;;;;;;;;;;19.01;100.00;85109.97;4997816;28;19917;-78
2022/07/22 07:12:46;;;;;;;;;;;;;;;18.86;100.00;114789.91;4997232;28;19917;-79
2022/07/22 07:15:11;;;;;;;;;;;;;;;18.56;100.00;145409.00;4997422;28;20040;-79
2022/07/22 07:17:36;;;;;;;;;;;;;;;18.77;100.00;131593.78;4997301;28;20067;-79
2022/07/22 07:20:02;;;;;;;;;;;;;;;18.86;100.00;134367.84;4997541;28;19968;-80
2022/07/22 07:22:29;;;;;;;;;;;;;;;18.96;100.00;147494.63;4997010;28;20387;-79
2022/07/22 07:24:55;;;;;;;;;;;;;;;19.01;100.00;147506.16;5015189;28;19983;-79
2022/07/22 07:27:20;;;;;;;;;;;;;;;19.34;100.00;147589.38;4998027;28;19957;-80
2022/07/22 07:29:46;;;;;;;;;;;;;;;19.33;100.00;147585.53;4996373;28;19920;-79
2022/07/22 07:32:11;;;;;;;;;;;;;;;19.17;100.00;147545.81;4996150;28;20012;-79
2022/07/22 07:34:36;;;;;;;;;;;;;;;19.34;100.00;147588.06;4997091;28;19914;-78
2022/07/22 07:37:02;;;;;;;;;;;;;;;19.47;100.00;147621.38;4998947;28;19921;-79
2022/07/22 07:39:27;;;;;;;;;;;;;;;19.36;100.00;147594.50;5018058;28;19913;-79
2022/07/22 07:41:52;;;;;;;;;;;;;;;19.14;100.00;147538.16;4997340;28;19914;-79
2022/07/22 07:44:18;;;;;;;;;;;;;;;19.02;100.00;147510.00;4996212;28;19913;-78
2022/07/22 07:46:43;;;;;;;;;;;;;;;19.07;100.00;147521.53;4996596;28;19913;-79
2022/07/22 07:49:08;;;;;;;;;;;;;;;18.73;100.00;147435.72;4996979;28;19916;-80
2022/07/22 07:51:34;;;;;;;;;;;;;;;18.68;100.00;147422.97;4997268;28;19921;-80
2022/07/22 07:54:02;;;;;;;;;;;;;;;18.61;100.00;147407.59;4996384;28;19975;-80
2022/07/22 07:56:27;;;;;;;;;;;;;;;18.52;100.00;147384.56;4980848;28;19918;-80
2022/07/22 07:58:52;;;;;;;;;;;;;;;18.88;100.00;147474.19;4997302;28;19979;-80
2022/07/22 08:01:17;;;;;;;;;;;;;;;19.37;100.00;147597.06;4996508;28;20346;-81
2022/07/22 08:04:01;;;;;;;;;;;;;;;19.53;100.00;147635.47;4996737;28;20324;-82
2022/07/22 08:06:27;;;;;;;;;;;;;;;19.69;100.00;147676.41;4997248;28;19920;-82
2022/07/22 08:08:52;;;;;;;;;;;;;;;19.76;100.00;147691.78;4997007;28;20011;-82
2022/07/22 08:11:17;;;;;;;;;;;;;;;19.80;100.00;147702.09;4996743;28;19909;-82
2022/07/22 08:13:56;;;;;;;;;;;;;;;19.83;100.00;147711.03;4996837;28;19913;-82
2022/07/22 08:16:21;;;;;;;;;;;;;;;19.71;100.00;147680.25;5013932;28;20358;-82
2022/07/22 08:18:47;;;;;;;;;;;;;;;19.77;100.00;147695.69;4996188;28;19924;-82
2022/07/22 08:21:12;;;;;;;;;;;;;;;19.91;100.00;147731.53;4996493;28;19913;-82
2022/07/22 08:23:40;;;;;;;;;;;;;;;20.22;100.00;147807.09;4996740;28;19924;-82
2022/07/22 08:26:06;;;;;;;;;;;;;;;19.64;100.00;147662.31;4996701;28;19914;-81
2022/07/22 08:28:31;;;;;;;;;;;;;;;19.42;100.00;147607.28;4996372;28;19921;-82
2022/07/22 08:30:56;;;;;;;;;;;;;;;19.09;100.00;147525.34;4995745;28;19955;-80
2022/07/22 08:33:21;;;;;;;;;;;;;;;19.78;100.00;147698.25;4995354;28;19971;-82
2022/07/22 08:35:47;;;;;;;;;;;;;;;19.71;100.00;147680.25;4996252;28;19928;-81
2022/07/22 08:38:12;;;;;;;;;;;;;;;19.72;100.00;147682.84;4996368;28;20384;-82
2022/07/22 08:40:38;;;;;;;;;;;;;;;19.50;100.00;147627.78;5014722;28;19920;-81
2022/07/22 08:43:03;;;;;;;;;;;;;;;19.82;100.00;147708.47;4996487;28;19944;-81
2022/07/22 08:45:29;;;;;;;;;;;;;;;19.62;100.00;147657.22;4996789;28;19913;-82
2022/07/22 08:47:55;;;;;;;;;;;;;;;19.59;100.00;147649.53;4995791;28;20481;-82
2022/07/22 08:50:20;;;;;;;;;;;;;;;19.21;100.00;147554.81;4995829;28;19936;-81
2022/07/22 08:52:47;;;;;;;;;;;;;;;19.12;100.00;147533.03;4995628;28;20369;-83
2022/07/22 08:55:13;;;;;;;;;;;;;;;18.65;100.00;147416.53;4994465;28;19917;-82
2022/07/22 08:57:43;;;;;;;;;;;;;;;18.57;100.00;147396.09;5013359;28;19960;-83
2022/07/22 09:00:12;;;;;;;;;;;;;;;18.70;100.00;147428.06;4996372;28;19920;-82
2022/07/22 09:02:38;;;;;;;;;;;;;;;18.46;100.00;147370.47;4996733;28;19917;-82
2022/07/22 09:05:05;;;;;;;;;;;;;;;18.66;100.00;147419.13;4996130;28;19928;-82
2022/07/22 09:07:30;;;;;;;;;;;;;;;18.88;100.00;147472.88;4996453;28;20333;-82
2022/07/22 09:09:57;;;;;;;;;;;;;;;19.34;100.00;147589.38;5012356;28;19932;-81
2022/07/22 09:12:22;;;;;;;;;;;;;;;19.28;100.00;147572.72;4994285;28;19914;-81
2022/07/22 09:14:51;;;;;;;;;;;;;;;19.33;100.00;147586.81;4995962;28;19921;-82
2022/07/22 09:17:28;;;;;;;;;;;;;;;19.10;100.00;147529.19;5013434;28;19924;-82
2022/07/22 09:19:53;;;;;;;;;;;;;;;19.26;100.00;147567.59;4996416;28;19917;-83
2022/07/22 09:22:47;;;;;;;;;;;;;;;19.34;100.00;147588.06;4996110;28;20057;-82
2022/07/22 09:25:25;;;;;;;;;;;;;;;19.43;100.00;147609.84;5012365;28;19913;-83
2022/07/22 09:27:51;;;;;;;;;;;;;;;19.73;100.00;147686.69;4996076;28;19941;-83
2022/07/22 09:30:19;;;;;;;;;;;;;;;19.96;100.00;147741.78;4996032;28;20543;-83
2022/07/22 09:32:48;;;;;;;;;;;;;;;20.37;100.00;147845.53;4995832;28;19940;-82
2022/07/22 09:35:14;;;;;;;;;;;;;;;20.65;100.00;147913.47;4996238;28;20424;-80
2022/07/22 09:37:50;;;;;;;;;;;;;;;19.93;100.00;147734.09;4995913;28;19921;-81
2022/07/22 09:40:17;;;;;;;;;;;;;;;19.46;100.00;147617.53;4995815;28;19942;-83
2022/07/22 09:42:44;;;;;;;;;;;;;;;19.27;100.00;147570.19;4995628;28;20023;-84
2022/07/22 09:45:10;;;;;;;;;;;;;;;19.72;100.00;147682.84;4995761;28;20370;-82
2022/07/22 09:47:36;;;;;;;;;;;;;;;19.99;100.00;147750.72;5012680;28;20393;-82
2022/07/22 09:50:01;;;;;;;;;;;;;;;20.09;100.00;147775.09;4995044;28;19913;-83
2022/07/22 09:52:27;;;;;;;;;;;;;;;20.85;100.00;147963.44;5013180;28;19960;-82
2022/07/22 09:54:53;;;;;;;;;;;;;;;21.45;100.00;148113.41;4995979;28;19917;-83
2022/07/22 09:57:19;;;;;;;;;;;;;;;21.79;100.00;148198.09;4996083;28;19975;-82
2022/07/22 09:59:45;;;;;;;;;;;;;;;22.06;100.00;148266.03;4995153;28;19913;-82
2022/07/22 10:02:11;;;;;;;;;;;;;;;21.97;100.00;148242.94;4994572;28;19972;-82
2022/07/22 10:04:48;;;;;;;;;;;;;;;21.07;100.00;148018.59;5012554;28;19913;-83
2022/07/22 10:07:15;;;;;;;;;;;;;;;20.82;100.00;147957.06;5012820;28;19917;-84
2022/07/22 10:09:45;;;;;;;;;;;;;;;20.53;100.00;147885.25;5015240;28;19956;-83
2022/07/22 10:12:11;;;;;;;;;;;;;;;20.35;100.00;147840.38;4998020;28;19962;-83
2022/07/22 10:14:41;;;;;;;;;;;;;;;20.73;100.00;147935.25;5000114;28;19917;-83
2022/07/22 10:17:06;;;;;;;;;;;;;;;21.27;100.00;148068.53;4998873;28;19917;-83
2022/07/22 10:19:32;;;;;;;;;;;;;;;21.42;100.00;148105.72;4999126;28;19961;-84
2022/07/22 10:21:57;;;;;;;;;;;;;;;22.01;100.00;148253.22;4998528;28;19920;-83
2022/07/22 10:24:23;;;;;;;;;;;;;;;21.93;100.00;148232.72;5003324;28;19960;-79
2022/07/22 10:26:55;;;;;;;;;;;;;;;21.84;100.00;148210.91;5006314;28;19937;-81
2022/07/22 10:29:23;;;;;;;;;;;;;;;21.94;100.00;148235.25;5002909;28;19968;-81
2022/07/22 10:31:50;;;;;;;;;;;;;;;21.83;100.00;148209.63;5000316;28;19909;-81
2022/07/22 10:34:16;;;;;;;;;;;;;;;21.99;100.00;148249.38;5001141;28;19913;-81
2022/07/22 10:36:43;;;;;;;;;;;;;;;22.02;100.00;148257.06;5003538;28;19977;-82
2022/07/22 10:39:10;;;;;;;;;;;;;;;21.68;100.00;148171.16;5010348;28;19913;-81
2022/07/22 10:41:37;;;;;;;;;;;;;;;21.66;100.00;148166.06;5028225;28;20391;-81
2022/07/22 10:44:10;;;;;;;;;;;;;;;21.47;100.00;148118.53;5020764;28;19928;-81
2022/07/22 10:46:52;;;;;;;;;;;;;;;21.16;100.00;148042.94;5001629;28;20358;-82
2022/07/22 10:49:18;;;;;;;;;;;;;;;21.24;100.00;148060.84;5001625;28;19913;-81
2022/07/22 10:52:02;;;;;;;;;;;;;;;21.33;100.00;148085.22;4999893;28;19921;-82
2022/07/22 10:54:29;;;;;;;;;;;;;;;21.26;100.00;148066.00;5000124;28;19960;-82
2022/07/22 10:56:55;;;;;;;;;;;;;;;21.43;100.00;148108.31;5001388;28;19913;-82
2022/07/22 10:59:23;;;;;;;;;;;;;;;21.48;100.00;148122.38;5001666;28;19924;-83
2022/07/22 11:01:50;;;;;;;;;;;;;;;21.56;100.00;148140.41;5002634;28;19914;-82
2022/07/22 11:04:22;;;;;;;;;;;;;;;21.67;100.00;148168.59;5017540;28;19971;-83
2022/07/22 11:06:48;;;;;;;;;;;;;;;21.99;100.00;148248.13;5018150;28;20404;-83
2022/07/22 11:09:14;;;;;;;;;;;;;;;21.97;100.00;148242.94;4999102;28;19917;-83
2022/07/22 11:11:43;;;;;;;;;;;;;;;22.03;100.00;148258.34;4999728;28;19989;-83
2022/07/22 11:14:20;;;;;;;;;;;;;;;21.77;100.00;148193.00;4999679;28;19914;-84
2022/07/22 11:16:46;;;;;;;;;;;;;;;21.31;100.00;148080.06;4998727;28;20004;-83
2022/07/22 11:19:11;;;;;;;;;;;;;;;20.97;100.00;147994.19;5014258;28;19921;-82
2022/07/22 11:21:37;;;;;;;;;;;;;;;21.20;100.00;148051.88;4999775;28;19913;-83
2022/07/22 11:24:04;;;;;;;;;;;;;;;20.81;100.00;147954.50;4997957;28;19917;-83
2022/07/22 11:26:35;;;;;;;;;;;;;;;20.73;100.00;147934.00;4998123;28;20006;-84
2022/07/22 11:29:01;;;;;;;;;;;;;;;21.27;100.00;148068.53;5002373;28;20053;-82
2022/07/22 11:31:26;;;;;;;;;;;;;;;21.28;100.00;148071.13;5003070;28;19949;-83
2022/07/22 11:33:51;;;;;;;;;;;;;;;21.36;100.00;148091.59;4997678;28;20004;-83
2022/07/22 11:36:17;;;;;;;;;;;;;;;21.47;100.00;148118.53;5018199;28;19913;-83
2022/07/22 11:38:49;;;;;;;;;;;;;;;21.24;100.00;148062.16;4998110;28;19909;-82
2022/07/22 11:41:18;;;;;;;;;;;;;;;20.98;100.00;147996.78;4997886;28;19948;-82
2022/07/22 11:43:47;;;;;;;;;;;;;;;21.27;100.00;148068.53;5003828;28;19940;-84
2022/07/22 11:46:14;;;;;;;;;;;;;;;20.86;100.00;147967.28;4999725;28;20325;-82
2022/07/22 11:48:40;;;;;;;;;;;;;;;20.81;100.00;147954.50;5005388;28;20376;-84
2022/07/22 11:51:06;;;;;;;;;;;;;;;20.27;100.00;147819.91;5000322;28;20274;-85
2022/07/22 11:53:31;;;;;;;;;;;;;;;20.36;100.00;147842.97;4999271;28;19917;-84
2022/07/22 11:55:59;;;;;;;;;;;;;;;20.75;100.00;147939.09;5001437;28;19936;-84
2022/07/22 11:58:44;;;;;;;;;;;;;;;21.14;100.00;148036.50;5005268;28;19913;-84
2022/07/22 12:01:11;;;;;;;;;;;;;;;21.39;100.00;148098.03;5002111;28;19913;-85
2022/07/22 12:03:45;;;;;;;;;;;;;;;21.04;100.00;148012.16;4999092;28;19913;-83
2022/07/22 12:06:17;;;;;;;;;;;;;;;21.26;100.00;148067.28;4998026;28;19953;-84
2022/07/22 12:09:03;;;;;;;;;;;;;;;21.50;100.00;148127.59;5022149;28;19914;-83
2022/07/22 12:11:29;;;;;;;;;;;;;;;21.47;100.00;148119.84;5004781;28;19936;-83
2022/07/22 12:13:57;;;;;;;;;;;;;;;21.23;100.00;148058.31;4999273;28;19917;-83
2022/07/22 12:16:27;;;;;;;;;;;;;;;20.96;100.00;147991.66;4998134;28;19920;-84
2022/07/22 12:19:11;;;;;;;;;;;;;;;20.92;100.00;147981.41;4998250;28;20435;-83
2022/07/22 12:21:50;;;;;;;;;;;;;;;21.17;100.00;148045.47;4999912;28;20373;-82
2022/07/22 12:24:25;;;;;;;;;;;;;;;21.41;100.00;148103.16;5000950;28;19921;-81
2022/07/22 12:26:52;;;;;;;;;;;;;;;21.81;100.00;148204.53;4997699;28;19960;-83